Airfield :
LOGIN :

Register | Disclaimer

   EN    FR    IT 

 










Legend :    VFR   Marginal VFR   IFR   Intensive IFR   Very Intensive IFR
Visi :
Ceiling :
>= 8 km
>= 3000ft
5 to 8 km
1000 to 3000 ft
1500m to 5 km
500 to 1000 ft
800 to 1500m
200 to 500 ft
< 800m
< 200 ft
Symbols :   Thunderstorms  Fog  Heavy snow  Heavy precipitations  Wind > 20 kt
SIGMETs :     Misc.  Thunderstorms  Icing  Turbulence  Mountain Waves  Volcanic Ashes







- Airport Elevation : 1017 ft
- Download approach charts


LFSL - Brive Souillac

CURRENT METAR :
  • 232030Z AUTO 32006KT CAVOK 20/10 Q1016

EXPIRED METARs :
  • 232000Z AUTO 34006KT CAVOK 20/10 Q1016 NOSIG
  • 231930Z AUTO 33006KT CAVOK 21/09 Q1016 NOSIG
  • 231900Z AUTO 31008KT CAVOK 21/10 Q1016 NOSIG
  • 231830Z AUTO 34004KT CAVOK 22/11 Q1016 NOSIG
  • 231800Z AUTO 36004KT CAVOK 22/11 Q1016 NOSIG

TAF TAF LFSL
Valid from the 23 at 15:00 until the 24 at 00:00 UTC


231400Z 2315/2324 29005KT CAVOK
No reported NOTAMs for that airfield.
1 SIGMET reported for the Bordeaux FIR (LFBB) :
 
Embedded thunderstorms
LFBB SIGMET 2 VALID 231900/232100 LFPW
LFBB BORDEAUX FIR/UIR EMBD TS FCST WI N4245 E00015 - N4245 W00100 - N4415 E00015 - N4415 E00100 - N4245 E00015 TOP FL320 MOV NE 15KT NC=



MET'MAP, your aeronautical weather chart ! - Copyright ORBIFLY December 2007 - Disclaimer

ORBIFLY MET'MAP TEAM :

Programming & Development : Alexandra Zaïnal
Concept & Development : Baudouin d'Aumeries
Co-Development & Prog : Marc-Olivier Méhu
Technical & hardware support : Manuel Goepfert

Contact : metmap@orbifly.com




SOURCES & CREDITS :

   NOAA